Latest Coastal Weather Observations for Green Cape

IDN60701

Issued at 9:55 pm EST Friday 19 September 2014 (issued every 10 minutes, with the page automatically refreshed every 10 minutes)

About coastal observations | Map of coastal stations | Coastal observations for NSW | Marine services | Other Formats
Station Details ID: 069137 Name: GREEN CAPE AWS Lat: -37.26 Lon: 150.05 Height: 19.4 m
Data from the previous 72 hours. | See also: Recent months at Green Cape
Date/Time
EST
Temp

°C
Wind Pressure Rain
since 9am
mm
Weather Cloud Vis
km
Sea
Height
m
Swell
Dir
 
Speed
knots
Gust
knots
hPa Trend Height
m
Period
s
Dir
19/09:30pm 12.7 WSW 20 26 1020.8 - 0.0 - - - - - - -
19/09:00pm 13.0 WSW 18 23 1020.9 - 0.0 - - - - - - -
19/08:30pm 12.8 WSW 17 23 1021.0 - 0.0 - - - - - - -
19/08:00pm 12.9 WSW 16 20 1021.0 - 0.0 - - - - - - -
19/07:30pm 13.0 SW 17 20 1020.8 - 0.0 - - - - - - -
19/07:00pm 13.2 SW 18 22 1020.4 - 0.0 - - - - - - -
19/06:30pm 13.4 SW 19 23 1020.1 - 0.0 - - - - - - -
19/06:00pm 13.7 WSW 20 26 1019.9 - 0.0 - - - - - - -
19/05:30pm 14.0 WSW 22 29 1019.5 - 0.0 - - - - - - -
19/05:00pm 14.6 WSW 20 23 1019.3 - 0.0 - - - - - - -
19/04:30pm 14.7 SW 23 30 1019.0 - 0.0 - - - - - - -
19/04:00pm 15.1 SW 22 30 1018.6 - 0.0 - - - - - - -
19/03:30pm 15.5 WSW 21 25 1018.6 - 0.0 - - - - - - -
19/03:00pm 15.4 SW 22 30 1018.5 - 0.0 - - - - - - -
19/02:42pm 15.5 WSW 24 36 1018.3 - 0.0 - - - - - - -
19/02:30pm 15.6 WSW 26 32 1018.5 - 0.0 - - - - - - -
19/02:00pm 15.0 WSW 23 35 1018.5 - 0.0 - - - - - - -
19/01:30pm 14.8 WSW 26 31 1018.8 - 0.0 - - - - - - -
19/01:21pm 14.9 SW 20 25 1018.8 - 0.0 - - - - - - -
19/01:00pm 15.4 WSW 21 28 1019.0 - 0.0 - - - - - - -
19/12:33pm 15.2 WSW 21 31 1019.5 - 0.0 - - - - - - -
19/12:30pm 15.2 WSW 22 29 1019.4 - 0.0 - - - - - - -
19/12:00pm 14.8 WSW 22 29 1019.8 - 0.0 - - - - - - -
19/11:30am 14.4 WSW 21 30 1020.2 - 0.0 - - - - - - -
19/11:04am 14.7 WSW 19 30 1020.0 - 0.0 - - - - - - -
19/11:00am 14.3 WSW 18 23 1020.2 - 0.0 - - - - - - -
19/10:30am 14.3 WSW 20 27 1020.2 - 0.0 - - - - - - -
19/10:00am 13.9 WSW 21 26 1020.5 - 0.0 - - - - - - -
19/09:30am 13.5 WSW 21 26 1020.5 - 0.0 - - - - - - -
19/09:00am 13.1 W 22 25 1020.4 - 0.0 - - - - - - -
19/08:30am 12.5 WSW 20 26 1020.4 - 0.0 - - - - - - -
19/08:00am 11.9 W 21 28 1020.3 - 0.0 - - - - - - -
19/07:30am 11.4 W 21 25 1020.2 - 0.0 - - - - - - -
19/07:00am 10.9 W 20 28 1020.2 - 0.0 - - - - - - -
19/06:30am 10.6 W 17 22 1020.2 - 0.0 - - - - - - -
19/06:00am 10.7 W 21 26 1019.8 - 0.0 - - - - - - -
19/05:30am 10.5 W 19 23 1019.6 - 0.0 - - - - - - -
19/05:00am 10.5 W 18 23 1019.5 - 0.0 - - - - - - -
19/04:30am 10.6 W 18 22 1019.5 - 0.0 - - - - - - -
19/04:00am 10.8 WSW 19 22 1019.6 - 0.0 - - - - - - -
19/03:30am 10.7 WSW 21 27 1019.4 - 0.0 - - - - - - -
19/03:00am 10.8 WSW 19 23 1019.6 - 0.0 - - - - - - -
19/02:30am 10.9 WSW 22 28 1019.7 - 0.0 - - - - - - -
19/02:00am 10.9 WSW 24 30 1019.7 - 0.0 - - - - - - -
19/01:30am 10.9 WSW 24 31 1019.8 - 0.0 - - - - - - -
19/01:00am 11.0 WSW 24 30 1020.0 - 0.0 - - - - - - -
19/12:30am 11.2 WSW 24 31 1020.1 - 0.0 - - - - - - -
19/12:00am 11.3 WSW 23 29 1020.0 - 0.0 - - - - - - -
 
Date/Time
EST
Temp

°C
Wind Pressure Rain
since 9am
mm
Weather Cloud Vis
km
Sea
Height
m
Swell
Dir
 
Speed
knots
Gust
knots
hPa Trend Height
m
Period
s
Dir
18/11:30pm 11.4 WSW 25 31 1020.0 - 0.0 - - - - - - -
18/11:00pm 11.4 WSW 24 30 1019.9 - 0.0 - - - - - - -
18/10:30pm 11.5 WSW 24 31 1020.0 - 0.0 - - - - - - -
18/10:00pm 11.3 WSW 17 23 1020.1 - 0.0 - - - - - - -
18/09:30pm 11.4 WSW 12 16 1020.2 - 0.0 - - - - - - -
18/09:00pm 10.9 WSW 11 16 1020.1 - 0.0 - - - - - - -
18/08:30pm 10.9 W 12 17 1020.2 - 0.0 - - - - - - -
18/08:00pm 11.1 WSW 13 19 1020.0 - 0.0 - - - - - - -
18/07:30pm 11.0 WSW 14 18 1020.0 - 0.0 - - - - - - -
18/07:00pm 11.6 WSW 17 21 1019.8 - 0.0 - - - - - - -
18/06:30pm 11.7 WSW 17 21 1019.6 - 0.0 - - - - - - -
18/06:00pm 12.6 WSW 19 28 1019.0 - 0.0 - - - - - - -
18/05:55pm 12.6 WSW 18 28 1018.9 - 0.0 - - - - - - -
18/05:30pm 12.8 SW 19 24 1018.6 - 0.0 - - - - - - -
18/05:00pm 13.1 SW 18 23 1018.5 - 0.0 - - - - - - -
18/04:30pm 13.3 SW 23 30 1018.0 - 0.0 - - - - - - -
18/04:15pm 13.6 SW 26 36 1017.7 - 0.0 - - - - - - -
18/04:00pm 13.6 SSW 22 26 1017.7 - 0.0 - - - - - - -
18/03:30pm 13.7 SW 23 29 1017.1 - 0.0 - - - - - - -
18/03:04pm 13.8 SW 21 33 1017.0 - 0.0 - - - - - - -
18/03:00pm 14.0 SW 22 28 1017.1 - 0.0 - - - - - - -
18/02:30pm 14.1 WSW 24 32 1017.0 - 0.0 - - - - - - -
18/02:00pm 14.1 WSW 28 36 1017.1 - 0.0 - - - - - - -
18/01:31pm 14.4 WSW 22 32 1016.9 - 0.0 - - - - - - -
18/01:30pm 14.4 WSW 22 30 1016.7 - 0.0 - - - - - - -
18/01:00pm 14.2 SW 25 31 1016.7 - 0.0 - - - - - - -
18/12:33pm 13.8 WSW 19 29 1016.9 - 0.0 - - - - - - -
18/12:30pm 13.7 WSW 21 30 1017.0 - 0.0 - - - - - - -
18/12:19pm 14.0 WSW 21 32 1016.9 - 0.0 - - - - - - -
18/12:00pm 13.7 WSW 24 29 1016.9 - 0.0 - - - - - - -
18/11:30am 12.8 WSW 23 32 1017.3 - 0.0 - - - - - - -
18/11:00am 13.1 WSW 23 32 1017.2 - 0.0 - - - - - - -
18/10:30am 13.2 WSW 21 31 1017.2 - 0.0 - - - - - - -
18/10:10am 12.6 WSW 21 33 1017.2 - 0.0 - - - - - - -
18/10:00am 12.5 WSW 23 32 1017.3 - 0.0 - - - - - - -
18/09:36am 12.5 WSW 24 34 1017.1 - 0.0 - - - - - - -
18/09:30am 12.3 WSW 22 30 1017.0 - 0.0 - - - - - - -
18/09:05am 12.0 WSW 25 35 1016.5 - 0.0 - - - - - - -
18/09:00am 12.0 WSW 26 33 1016.5 - - - - - - - - -
18/08:50am 11.9 WSW 26 38 1016.4 - - - - - - - - -
18/08:30am 11.7 WSW 24 30 1016.5 - - - - - - - - -
18/08:00am 11.1 WSW 26 34 1016.1 - - - - - - - - -
18/07:30am 10.9 WSW 26 36 1015.7 - - - - - - - - -
18/07:22am 10.9 WSW 27 37 1015.6 - - - - - - - - -
18/07:00am 10.7 WSW 28 36 1015.3 - - - - - - - - -
18/06:43am 10.5 W 28 40 1014.9 - - - - - - - - -
18/06:30am 10.4 W 28 36 1014.9 - - - - - - - - -
18/06:00am 10.3 WSW 27 36 1014.2 - - - - - - - - -
18/05:58am 10.4 WSW 26 36 1014.2 - - - - - - - - -
18/05:30am 10.4 WSW 29 36 1013.7 - - - - - - - - -
18/05:00am 10.3 WSW 30 36 1013.7 - - - - - - - - -
18/04:33am 10.3 WSW 27 38 1013.4 - - - - - - - - -
18/04:30am 10.5 W 26 34 1013.6 - - - - - - - - -
18/04:16am 10.3 W 25 37 1013.4 - - - - - - - - -
18/04:00am 10.3 W 23 29 1013.5 - - - - - - - - -
18/03:53am 10.3 WSW 19 29 1013.5 - - - - - - - - -
18/03:30am 10.1 W 18 24 1013.6 - - - - - - - - -
18/03:00am 10.0 W 19 26 1013.6 - 0.0 - - - - - - -
18/02:30am 10.0 W 22 27 1013.6 - - - - - - - - -
18/02:00am 10.2 W 21 28 1013.7 - - - - - - - - -
18/01:39am 9.8 W 20 32 1013.7 - - - - - - - - -
18/01:30am 9.8 W 19 24 1013.7 - - - - - - - - -
18/01:00am 9.8 W 17 22 1014.1 - - - - - - - - -
18/12:30am 10.1 W 18 23 1014.2 - - - - - - - - -
18/12:00am 10.2 WSW 24 29 1014.3 - - - - - - - - -
 
Date/Time
EST
Temp

°C
Wind Pressure Rain
since 9am
mm
Weather Cloud Vis
km
Sea
Height
m
Swell
Dir
 
Speed
knots
Gust
knots
hPa Trend Height
m
Period
s
Dir
17/11:30pm 10.4 WSW 25 31 1014.1 - - - - - - - - -
17/11:00pm 10.6 WSW 26 32 1014.0 - - - - - - - - -
17/10:30pm 10.6 WSW 27 36 1013.8 - - - - - - - - -
17/10:05pm 10.9 WSW 28 39 1013.6 - - - - - - - - -
17/10:00pm 10.9 WSW 29 39 1013.3 - - - - - - - - -
17/09:30pm 11.0 WSW 23 34 1013.5 - - - - - - - - -
17/09:14pm 11.0 WSW 23 34 1013.3 - - - - - - - - -
17/09:00pm 11.2 WSW 24 29 1013.2 - 0.0 - - - - - - -
17/08:30pm 11.3 WSW 24 31 1012.6 - - - - - - - - -
17/08:00pm 11.7 WSW 24 30 1012.5 - - - - - - - - -
17/07:50pm 11.2 WSW 19 31 1012.4 - - - - - - - - -
17/07:30pm 11.2 WSW 22 29 1012.3 - - - - - - - - -
17/07:00pm 11.8 SW 28 37 1011.6 - - - - - - - - -
17/06:51pm 12.1 SW 26 36 1011.2 - - - - - - - - -
17/06:30pm 12.2 WSW 26 32 1011.0 - - - - - - - - -
17/06:00pm 12.5 WSW 22 28 1010.7 - - - - - - - - -
17/05:30pm 12.8 WSW 22 32 1010.3 - - - - - - - - -
17/05:00pm 13.5 SW 24 31 1009.6 - - - - - - - - -
17/04:30pm 14.5 WSW 24 30 1008.8 - - - - - - - - -
17/04:00pm 14.9 SW 26 31 1008.2 - - - - - - - - -
17/03:30pm 15.2 WSW 22 26 1007.8 - - - - - - - - -
17/03:00pm 16.3 SW 17 31 1007.2 - - - - - - - - -
17/02:59pm 16.8 SW 15 28 1007.4 - - - - - - - - -
17/02:30pm 17.2 SW 14 19 1007.2 - - - - - - - - -
17/02:00pm 17.3 WSW 19 24 1007.3 - - - - - - - - -
17/01:30pm 17.5 WSW 15 21 1007.9 - - - - - - - - -
17/01:00pm 17.2 WSW 17 20 1007.7 - - - - - - - - -
17/12:30pm 16.7 WSW 13 18 1007.9 - - - - - - - - -
17/12:00pm 16.6 W 15 20 1008.4 - 0.0 - - - - - - -
17/10:30am 15.0 - - - 1009.5 - - - - - - - - -
17/10:00am 14.7 - - - 1009.8 - - - - - - - - -
17/09:30am 13.9 - - - 1010.0 - - - - - - - - -
17/09:00am 13.7 - - - 1010.2 - 5.0 - - - - - - -
17/08:30am 13.2 - - - 1010.2 - - - - - - - - -
17/08:00am 13.0 - - - 1010.5 - - - - - - - - -
17/07:30am 12.5 - - - 1010.3 - - - - - - - - -
17/07:00am 12.4 - - - 1010.1 - - - - - - - - -
17/06:30am 12.1 - - - 1010.0 - - - - - - - - -
17/06:00am 12.3 - - - 1009.4 - - - - - - - - -
17/05:30am 12.3 - - - 1009.1 - - - - - - - - -
17/05:00am 12.6 - - - 1009.1 - - - - - - - - -
17/04:30am 12.6 - - - 1008.8 - - - - - - - - -
17/04:00am 12.7 - - - 1008.7 - - - - - - - - -
17/03:30am 12.9 - - - 1008.1 - - - - - - - - -
17/03:00am 13.1 - - - 1008.2 - 0.2 - - - - - - -
17/02:30am 13.2 - - - 1007.8 - - - - - - - - -
17/02:00am 13.4 - - - 1008.0 - - - - - - - - -
17/01:30am 13.4 - - - 1008.1 - - - - - - - - -
17/01:00am 13.5 - - - 1008.2 - - - - - - - - -
17/12:30am 13.4 - - - 1008.2 - - - - - - - - -
17/12:00am 13.5 - - - 1008.1 - - - - - - - - -
 
Date/Time
EST
Temp

°C
Wind Pressure Rain
since 9am
mm
Weather Cloud Vis
km
Sea
Height
m
Swell
Dir
 
Speed
knots
Gust
knots
hPa Trend Height
m
Period
s
Dir
16/11:30pm 13.5 - - - 1008.0 - - - - - - - - -
16/11:00pm 13.4 - - - 1008.5 - - - - - - - - -
16/10:30pm 13.7 - - - 1008.7 - - - - - - - - -
16/10:00pm 13.8 - - - 1008.4 - - - - - - - - -

Other Formats:

Comma delimited format used in spreadsheet applications
http://www.bom.gov.au/fwo/IDN60701/IDN60701.94934.axf

JavaScript Object Notation format (JSON) in row-major order
http://www.bom.gov.au/fwo/IDN60701/IDN60701.94934.json